Time;durP1;ratioP1;P1;durP2;ratioP2;P2;SDS_P1;SDS_P2;PMS_P1;PMS_P2;Temp;Humidity;BMP_temperature;BMP_pressure;BME280_temperature;BME280_humidity;BME280_pressure;Samples;Min_cycle;Max_cycle;Signal;HPM_P1;HPM_P2
2022/01/07 00:02:10;;;;;;;2.55;1.48;;;;;;;0.45;67.67;97960.50;5070253;28;20034;-63
2022/01/07 00:04:36;;;;;;;1.30;0.98;;;;;;;0.31;67.70;97956.19;5070769;28;20367;-65
2022/01/07 00:07:05;;;;;;;1.75;1.02;;;;;;;0.26;67.80;97961.75;5072006;28;20028;-62
2022/01/07 00:09:31;;;;;;;1.52;0.95;;;;;;;0.16;67.60;97970.38;5071764;28;20085;-61
2022/01/07 00:11:56;;;;;;;2.67;0.90;;;;;;;0.10;67.39;97961.97;5072276;28;20033;-64
2022/01/07 00:14:22;;;;;;;0.90;0.60;;;;;;;0.06;68.02;97973.66;5072427;28;20462;-62
2022/01/07 00:16:47;;;;;;;1.52;0.57;;;;;;;-0.02;67.02;97970.69;5070104;28;20540;-62
2022/01/07 00:19:14;;;;;;;1.08;0.70;;;;;;;-0.02;67.22;97968.91;5071364;28;20036;-62
2022/01/07 00:21:40;;;;;;;1.67;0.70;;;;;;;-0.18;66.99;97927.00;5104816;28;20108;-63
2022/01/07 00:24:06;;;;;;;2.95;0.60;;;;;;;0.05;66.48;97979.00;5071640;28;20020;-61
2022/01/07 00:26:31;;;;;;;1.73;0.50;;;;;;;0.08;66.23;97974.41;5071183;28;20490;-61
2022/01/07 00:28:56;;;;;;;0.88;0.60;;;;;;;0.04;65.82;97961.53;5071275;28;20038;-66
2022/01/07 00:31:22;;;;;;;0.95;0.60;;;;;;;0.19;65.64;97970.19;5071423;28;20036;-63
2022/01/07 00:33:47;;;;;;;0.50;0.50;;;;;;;0.26;64.95;97968.84;5071084;28;20115;-62
2022/01/07 00:36:13;;;;;;;1.13;0.63;;;;;;;0.25;65.35;97959.25;5070776;28;20029;-62
2022/01/07 00:38:39;;;;;;;1.35;0.80;;;;;;;0.31;65.30;97985.16;5071113;28;20035;-62
2022/01/07 00:41:05;;;;;;;1.48;0.60;;;;;;;0.37;64.96;97973.38;5071301;28;20047;-62
2022/01/07 00:43:30;;;;;;;2.20;0.70;;;;;;;0.30;64.11;97962.41;5070950;28;20076;-62
2022/01/07 00:45:56;;;;;;;2.05;0.60;;;;;;;0.32;64.11;97972.81;5071208;28;20136;-61
2022/01/07 00:48:21;;;;;;;1.10;0.68;;;;;;;0.27;63.56;97983.69;5071130;28;20040;-62
2022/01/07 00:50:47;;;;;;;1.55;0.60;;;;;;;0.27;63.74;97981.06;5070671;28;20535;-62
2022/01/07 00:53:12;;;;;;;1.30;0.65;;;;;;;0.22;64.06;97981.34;5070919;28;20040;-63
2022/01/07 00:55:38;;;;;;;1.15;0.40;;;;;;;0.23;63.27;97979.53;5070032;28;20399;-62
2022/01/07 00:58:04;;;;;;;1.75;0.55;;;;;;;0.26;63.76;97982.00;5071058;28;20035;-62
2022/01/07 01:00:29;;;;;;;1.50;0.68;;;;;;;0.24;63.50;97978.59;5070964;28;20024;-64
2022/01/07 01:02:56;;;;;;;0.90;0.60;;;;;;;0.08;63.84;97955.13;5071661;28;20031;-60
2022/01/07 01:05:22;;;;;;;0.70;0.50;;;;;;;0.26;64.07;97977.56;5069192;28;20036;-61
2022/01/07 01:07:48;;;;;;;1.05;0.73;;;;;;;0.32;63.38;97981.56;5070419;28;20035;-61
2022/01/07 01:10:16;;;;;;;0.95;0.60;;;;;;;0.37;63.56;97979.47;5071066;28;20032;-62
2022/01/07 01:12:44;;;;;;;0.82;0.57;;;;;;;0.40;63.29;97981.88;5070770;28;20487;-63
2022/01/07 01:15:12;;;;;;;1.55;0.80;;;;;;;0.30;63.18;97966.81;5070667;28;20124;-62
2022/01/07 01:17:39;;;;;;;0.90;0.60;;;;;;;0.23;63.09;97982.19;5071153;28;20025;-61
2022/01/07 01:20:08;;;;;;;1.73;0.80;;;;;;;0.22;63.52;97991.03;5071230;28;20123;-61
2022/01/07 01:22:33;;;;;;;1.42;0.70;;;;;;;0.21;63.71;97978.81;5070590;28;20086;-63
2022/01/07 01:24:59;;;;;;;1.23;0.70;;;;;;;0.26;62.85;97988.09;5070872;28;20135;-61
2022/01/07 01:27:24;;;;;;;1.23;0.75;;;;;;;0.28;62.89;97985.38;5070952;28;20125;-62
2022/01/07 01:29:50;;;;;;;2.33;0.95;;;;;;;0.30;63.38;97994.00;5069805;28;20028;-63
2022/01/07 01:32:16;;;;;;;1.13;0.80;;;;;;;0.24;63.30;97994.38;5070465;28;20033;-62
2022/01/07 01:34:42;;;;;;;2.08;0.75;;;;;;;0.21;62.64;97994.59;5070544;28;20025;-61
2022/01/07 01:37:08;;;;;;;1.08;0.55;;;;;;;0.21;62.48;97992.84;5069858;28;20343;-61
2022/01/07 01:39:34;;;;;;;1.15;0.60;;;;;;;-0.06;62.78;97946.38;5070813;28;20029;-62
2022/01/07 01:41:59;;;;;;;2.67;0.43;;;;;;;0.20;63.01;97995.56;5070569;28;20064;-62
2022/01/07 01:44:25;;;;;;;2.15;0.30;;;;;;;0.23;62.19;97992.72;5069099;28;20462;-62
2022/01/07 01:46:51;;;;;;;2.15;0.30;;;;;;;0.23;61.51;97997.97;5073814;28;20032;-63
2022/01/07 01:49:16;;;;;;;1.50;0.50;;;;;;;0.19;61.83;97981.56;5075075;28;20140;-61
2022/01/07 01:51:42;;;;;;;0.57;0.40;;;;;;;0.03;61.97;97971.25;5074286;28;20486;-61
2022/01/07 01:54:08;;;;;;;1.10;0.50;;;;;;;0.19;62.81;98002.63;5074341;28;20055;-63
2022/01/07 01:56:34;;;;;;;0.55;0.40;;;;;;;0.18;62.35;97992.19;5074603;28;20111;-63
2022/01/07 01:59:00;;;;;;;0.43;0.40;;;;;;;0.21;62.06;97990.19;5075228;28;20087;-63
2022/01/07 02:01:26;;;;;;;1.42;0.40;;;;;;;0.24;61.90;97989.13;5074097;28;20040;-62
2022/01/07 02:03:51;;;;;;;0.98;0.60;;;;;;;0.26;62.06;97987.25;5072811;28;20834;-63
2022/01/07 02:06:17;;;;;;;0.57;0.50;;;;;;;0.05;61.13;97977.22;5073005;28;20108;-62
2022/01/07 02:08:43;;;;;;;1.35;0.40;;;;;;;0.22;62.09;97999.78;5074543;28;20059;-61
2022/01/07 02:11:09;;;;;;;1.13;0.55;;;;;;;0.00;61.60;97966.19;5072755;28;20064;-62
2022/01/07 02:13:34;;;;;;;0.95;0.35;;;;;;;0.23;61.84;97993.56;5073842;28;20485;-62
2022/01/07 02:16:00;;;;;;;1.25;0.55;;;;;;;0.25;61.85;97996.94;5074384;28;20089;-61
2022/01/07 02:18:25;;;;;;;0.88;0.50;;;;;;;0.23;61.46;97993.56;5074233;28;20033;-62
2022/01/07 02:20:51;;;;;;;0.73;0.50;;;;;;;0.19;61.31;97994.72;5073709;28;20032;-62
2022/01/07 02:23:19;;;;;;;1.10;0.40;;;;;;;0.24;61.46;97999.66;5073755;28;20035;-63
2022/01/07 02:25:49;;;;;;;1.33;0.50;;;;;;;0.26;61.66;98003.88;5073482;28;20036;-63
2022/01/07 02:28:14;;;;;;;1.02;0.40;;;;;;;0.28;61.90;98006.44;5073220;28;20348;-64
2022/01/07 02:30:40;;;;;;;1.45;0.60;;;;;;;0.30;61.63;98009.78;5073766;28;20036;-62
2022/01/07 02:33:06;;;;;;;1.58;0.60;;;;;;;0.13;61.27;97977.56;5073209;28;20028;-64
2022/01/07 02:35:34;;;;;;;0.95;0.70;;;;;;;0.20;60.82;97983.25;5073823;28;20020;-62
2022/01/07 02:38:00;;;;;;;1.35;0.70;;;;;;;0.36;61.32;98003.25;5073488;28;20058;-63
2022/01/07 02:40:26;;;;;;;1.77;0.70;;;;;;;0.39;61.15;98006.53;5073341;28;20024;-62
2022/01/07 02:42:52;;;;;;;0.88;0.40;;;;;;;0.38;61.83;98006.66;5073754;28;20028;-63
2022/01/07 02:45:18;;;;;;;1.90;0.70;;;;;;;0.47;61.90;98018.31;5072795;28;20358;-64
2022/01/07 02:50:14;;;;;;;1.83;0.60;;;;;;;0.52;61.07;98024.13;5072211;28;20060;-62
2022/01/07 02:52:39;;;;;;;0.95;0.70;;;;;;;0.52;61.49;98021.50;5072741;28;20052;-63
2022/01/07 02:55:05;;;;;;;1.42;0.63;;;;;;;0.52;60.91;98018.88;5073136;28;20117;-68
2022/01/07 02:57:31;;;;;;;1.88;0.77;;;;;;;0.57;60.90;98020.22;5073183;28;20490;-62
2022/01/07 02:59:56;;;;;;;1.60;0.65;;;;;;;0.52;61.26;98010.97;5073099;28;20024;-62
2022/01/07 03:02:22;;;;;;;1.92;0.70;;;;;;;0.59;60.86;98035.94;5072925;28;20047;-62
2022/01/07 03:04:47;;;;;;;1.95;0.60;;;;;;;0.62;60.98;98030.44;5073167;28;20029;-61
2022/01/07 03:07:13;;;;;;;1.23;0.50;;;;;;;0.61;61.18;98039.28;5073047;28;20031;-63
2022/01/07 03:09:39;;;;;;;1.65;0.55;;;;;;;0.42;61.01;98006.31;5073011;28;20032;-63
2022/01/07 03:12:05;;;;;;;2.25;0.55;;;;;;;0.60;61.43;98040.25;5073228;28;20542;-63
2022/01/07 03:14:30;;;;;;;2.33;0.50;;;;;;;0.60;61.49;98034.13;5073412;28;20107;-62
2022/01/07 03:16:56;;;;;;;1.05;0.60;;;;;;;0.59;60.85;98040.34;5071618;28;20743;-62
2022/01/07 03:19:21;;;;;;;1.05;0.65;;;;;;;0.60;61.19;98034.97;5072638;28;20153;-62
2022/01/07 03:21:47;;;;;;;1.05;0.70;;;;;;;0.59;61.15;98041.19;5072069;28;20028;-62
2022/01/07 03:24:12;;;;;;;0.80;0.50;;;;;;;0.58;60.98;98042.13;5073485;28;20025;-62
2022/01/07 03:26:38;;;;;;;1.60;0.50;;;;;;;0.39;60.94;98019.69;5071138;28;20027;-63
2022/01/07 03:29:04;;;;;;;1.63;0.68;;;;;;;0.54;61.26;98041.50;5072482;28;20440;-62
2022/01/07 03:31:30;;;;;;;0.98;0.63;;;;;;;0.57;61.45;98053.63;5071541;28;20064;-63
2022/01/07 03:33:55;;;;;;;1.38;0.65;;;;;;;0.60;61.65;98057.81;5072911;28;20465;-61
2022/01/07 03:36:21;;;;;;;1.38;0.88;;;;;;;0.61;61.87;98055.09;5072723;28;20020;-62
2022/01/07 03:38:46;;;;;;;2.97;0.90;;;;;;;0.41;61.34;98022.22;5072108;28;20024;-61
2022/01/07 03:41:12;;;;;;;2.72;0.95;;;;;;;0.61;60.95;98060.34;5072460;28;20029;-64
2022/01/07 03:43:37;;;;;;;0.98;0.75;;;;;;;0.38;61.43;98028.53;5072789;28;20041;-67
2022/01/07 03:46:03;;;;;;;1.25;0.90;;;;;;;0.28;61.88;98017.78;5072482;28;20470;-63
2022/01/07 03:48:28;;;;;;;0.80;0.70;;;;;;;0.53;61.86;98058.25;5070593;28;20036;-63
2022/01/07 03:50:54;;;;;;;2.63;0.93;;;;;;;0.49;62.33;98053.31;5072042;28;20059;-63
2022/01/07 03:53:22;;;;;;;3.08;1.00;;;;;;;0.57;62.27;98056.25;5072689;28;20064;-62
2022/01/07 03:55:48;;;;;;;1.58;0.70;;;;;;;0.51;62.00;98057.50;5072151;28;20111;-62
2022/01/07 03:58:13;;;;;;;1.13;0.80;;;;;;;0.56;62.40;98068.56;5071461;28;20170;-63
2022/01/07 04:00:40;;;;;;;2.15;0.80;;;;;;;0.35;62.26;98034.00;5071833;28;20435;-66
2022/01/07 04:03:12;;;;;;;1.20;0.75;;;;;;;0.40;62.31;98046.88;5072424;28;20477;-62
2022/01/07 04:05:38;;;;;;;1.83;0.70;;;;;;;0.47;62.09;98063.06;5072280;28;20090;-64
2022/01/07 04:08:05;;;;;;;1.10;0.65;;;;;;;0.49;62.20;98077.00;5071223;28;20082;-62
2022/01/07 04:10:30;;;;;;;1.25;0.70;;;;;;;0.38;62.31;98059.31;5070946;28;20051;-62
2022/01/07 04:12:56;;;;;;;2.20;0.63;;;;;;;0.38;61.24;98077.72;5072298;28;20459;-62
2022/01/07 04:15:23;;;;;;;0.85;0.50;;;;;;;0.11;62.02;98049.63;5071626;28;20041;-62
2022/01/07 04:17:50;;;;;;;0.70;0.70;;;;;;;0.15;61.74;98064.31;5071537;28;20555;-63
2022/01/07 04:20:20;;;;;;;2.45;0.68;;;;;;;0.16;61.85;98084.41;5071364;28;20027;-63
2022/01/07 04:22:46;;;;;;;1.40;0.68;;;;;;;0.04;61.95;98074.69;5071075;28;20070;-63
2022/01/07 04:25:17;;;;;;;1.42;0.68;;;;;;;0.06;61.86;98081.53;5071252;28;20028;-63
2022/01/07 04:28:04;;;;;;;2.22;0.88;;;;;;;0.08;61.95;98090.19;5069902;28;20386;-62
2022/01/07 04:30:37;;;;;;;1.60;0.77;;;;;;;-0.04;61.79;98080.44;5071239;28;20489;-62
2022/01/07 04:33:04;;;;;;;1.70;0.70;;;;;;;-0.03;62.00;98106.66;5071228;28;20032;-63
2022/01/07 04:35:32;;;;;;;1.00;0.70;;;;;;;-0.08;62.13;98094.75;5070849;28;20035;-62
2022/01/07 04:37:58;;;;;;;2.50;0.65;;;;;;;-0.09;62.19;98107.06;5071546;28;20035;-62
2022/01/07 04:40:24;;;;;;;1.30;0.75;;;;;;;-0.34;62.14;98066.56;5069582;28;20036;-62
2022/01/07 04:42:50;;;;;;;1.40;0.90;;;;;;;-0.07;62.34;98112.22;5070849;28;20045;-63
2022/01/07 04:45:16;;;;;;;2.17;0.82;;;;;;;-0.04;62.05;98117.28;5071497;28;20043;-62
2022/01/07 04:47:42;;;;;;;2.65;0.70;;;;;;;-0.06;62.70;98117.38;5070696;28;20480;-65
2022/01/07 04:50:10;;;;;;;0.80;0.77;;;;;;;-0.05;62.87;98120.84;5071310;28;20045;-63
2022/01/07 04:52:38;;;;;;;1.88;0.80;;;;;;;-0.11;62.75;98116.84;5071187;28;20068;-62
2022/01/07 04:55:04;;;;;;;1.48;0.95;;;;;;;-0.12;63.36;98120.41;5071037;28;20111;-63
2022/01/07 04:57:30;;;;;;;2.40;1.10;;;;;;;-0.09;63.25;98124.63;5070440;28;20054;-62
2022/01/07 04:59:56;;;;;;;1.42;0.80;;;;;;;-0.15;63.67;98123.22;5071213;28;20390;-62
2022/01/07 05:02:22;;;;;;;1.45;0.85;;;;;;;-0.27;63.29;98108.25;5071130;28;20465;-62
2022/01/07 05:04:47;;;;;;;1.60;1.00;;;;;;;-0.19;63.93;98133.13;5069282;28;20028;-62
2022/01/07 05:07:14;;;;;;;1.67;1.10;;;;;;;-0.19;63.78;98134.88;5070396;28;20320;-66
2022/01/07 05:09:39;;;;;;;2.95;0.93;;;;;;;-0.23;64.18;98129.00;5071439;28;20040;-64
2022/01/07 05:12:05;;;;;;;1.70;1.00;;;;;;;-0.19;63.48;98143.63;5070836;28;20028;-62
2022/01/07 05:14:30;;;;;;;1.38;0.90;;;;;;;-0.19;62.98;98141.00;5069202;28;20419;-61
2022/01/07 05:16:56;;;;;;;1.98;1.15;;;;;;;-0.16;62.52;98155.72;5070800;28;20020;-64
2022/01/07 05:19:22;;;;;;;3.33;1.30;;;;;;;-0.19;61.95;98156.78;5071234;28;20032;-64
2022/01/07 05:21:47;;;;;;;2.63;1.23;;;;;;;-0.23;61.68;98155.31;5069105;28;20025;-64
2022/01/07 05:24:13;;;;;;;1.70;0.90;;;;;;;-0.20;61.39;98162.13;5070362;28;20060;-64
2022/01/07 05:26:38;;;;;;;2.40;1.20;;;;;;;-0.35;60.31;98145.53;5071019;28;20416;-63
2022/01/07 05:29:04;;;;;;;1.67;1.02;;;;;;;-0.32;60.70;98171.63;5069846;28;20028;-62
2022/01/07 05:31:30;;;;;;;2.10;1.20;;;;;;;-0.46;60.41;98169.88;5070792;28;20047;-63
2022/01/07 05:33:55;;;;;;;1.65;1.02;;;;;;;-0.49;60.51;98176.16;5070007;28;20077;-63
2022/01/07 05:36:22;;;;;;;2.28;1.17;;;;;;;-0.44;60.07;98184.63;5069427;28;20028;-62
2022/01/07 05:38:47;;;;;;;1.77;0.95;;;;;;;-0.51;60.14;98183.28;5070957;28;20051;-63
2022/01/07 05:41:14;;;;;;;2.83;1.35;;;;;;;-0.52;60.06;98197.38;5071034;28;20470;-62
2022/01/07 05:43:40;;;;;;;2.08;1.20;;;;;;;-0.54;60.23;98196.63;5070279;28;20028;-64
2022/01/07 05:46:10;;;;;;;1.70;1.15;;;;;;;-0.59;60.32;98196.94;5070382;28;20539;-62
2022/01/07 05:48:36;;;;;;;2.28;0.98;;;;;;;-0.82;60.06;98158.91;5070723;28;20043;-61
2022/01/07 05:51:01;;;;;;;1.73;1.10;;;;;;;-0.64;59.65;98200.78;5068934;28;20401;-62
2022/01/07 05:53:27;;;;;;;1.75;1.20;;;;;;;-0.69;59.38;98200.22;5070010;28;20051;-62
2022/01/07 05:55:52;;;;;;;1.83;1.10;;;;;;;-0.68;60.22;98200.09;5070170;28;20033;-63
2022/01/07 05:58:18;;;;;;;1.75;1.20;;;;;;;-0.82;58.92;98187.81;5070867;28;20031;-62
2022/01/07 06:00:43;;;;;;;1.17;1.00;;;;;;;-0.84;58.97;98207.22;5069629;28;20036;-61
2022/01/07 06:03:09;;;;;;;2.38;1.13;;;;;;;-0.92;60.00;98211.16;5070069;28;20363;-61
2022/01/07 06:05:34;;;;;;;1.50;1.00;;;;;;;-0.92;59.73;98215.56;5070186;28;20032;-61
2022/01/07 06:08:00;;;;;;;3.75;0.98;;;;;;;-1.02;59.22;98212.66;5070443;28;20127;-61
2022/01/07 06:10:25;;;;;;;1.42;0.85;;;;;;;-1.06;59.05;98211.97;5068789;28;20064;-61
2022/01/07 06:12:51;;;;;;;1.23;0.68;;;;;;;-1.25;59.05;98201.72;5069822;28;20028;-63
2022/01/07 06:15:16;;;;;;;1.88;1.05;;;;;;;-1.32;59.01;98195.97;5070351;28;20054;-66
2022/01/07 06:17:42;;;;;;;1.50;1.00;;;;;;;-1.12;59.69;98228.09;5070082;28;20029;-64
2022/01/07 06:20:08;;;;;;;2.13;1.17;;;;;;;-1.10;60.32;98233.25;5070160;28;20055;-63
2022/01/07 06:22:34;;;;;;;2.17;1.10;;;;;;;-1.11;59.91;98229.78;5069564;28;20031;-62
2022/01/07 06:25:04;;;;;;;2.20;1.25;;;;;;;-1.00;59.49;98242.28;5069622;28;20028;-63
2022/01/07 06:27:29;;;;;;;2.28;1.20;;;;;;;-1.06;59.46;98227.72;5070226;28;20025;-62
2022/01/07 06:29:57;;;;;;;1.63;1.10;;;;;;;-1.10;59.65;98236.72;5069693;28;20033;-63
2022/01/07 06:32:23;;;;;;;2.00;1.30;;;;;;;-1.13;59.56;98236.91;5070109;28;20033;-62
2022/01/07 06:34:49;;;;;;;1.98;1.33;;;;;;;-1.32;59.99;98209.09;5073661;28;20033;-64
2022/01/07 06:37:14;;;;;;;2.85;1.40;;;;;;;-1.09;59.68;98248.06;5073505;28;20412;-64
2022/01/07 06:39:40;;;;;;;2.50;1.52;;;;;;;-1.16;59.76;98255.47;5072037;28;20052;-62
2022/01/07 06:42:06;;;;;;;1.80;1.42;;;;;;;-1.22;60.17;98250.56;5073664;28;20028;-63
2022/01/07 06:44:31;;;;;;;2.30;1.40;;;;;;;-1.23;59.47;98254.97;5071698;28;20065;-61
2022/01/07 06:46:57;;;;;;;2.20;1.42;;;;;;;-1.24;59.80;98252.44;5073284;28;20462;-63
2022/01/07 06:49:22;;;;;;;1.58;1.00;;;;;;;-1.30;58.73;98254.47;5073732;28;20504;-61
2022/01/07 06:51:49;;;;;;;2.15;1.50;;;;;;;-1.35;58.15;98268.78;5073344;28;20497;-64
2022/01/07 06:54:15;;;;;;;2.58;1.25;;;;;;;-1.37;57.97;98261.03;5073535;28;20028;-62
2022/01/07 06:56:42;;;;;;;1.63;1.10;;;;;;;-1.37;58.14;98268.91;5077219;28;20512;-62
2022/01/07 06:59:08;;;;;;;2.60;1.38;;;;;;;-1.38;57.71;98276.84;5090199;28;20034;-64
2022/01/07 07:01:34;;;;;;;1.45;1.00;;;;;;;-1.31;58.10;98276.44;5093192;28;20028;-62
2022/01/07 07:03:59;;;;;;;2.72;1.60;;;;;;;-1.23;58.44;98268.13;5093588;28;20063;-63
2022/01/07 07:06:25;;;;;;;1.35;0.85;;;;;;;-1.21;58.14;98263.63;5093661;28;20024;-67
2022/01/07 07:08:50;;;;;;;1.52;0.85;;;;;;;-1.09;57.43;98271.72;5091739;28;20067;-66
2022/01/07 07:11:16;;;;;;;2.97;0.90;;;;;;;-1.08;56.92;98274.25;5093409;28;20060;-64
2022/01/07 07:13:41;;;;;;;1.20;0.90;;;;;;;-1.10;56.30;98278.75;5091869;28;20054;-62
2022/01/07 07:16:07;;;;;;;1.38;0.80;;;;;;;-1.14;55.95;98285.13;5091781;28;20024;-63
2022/01/07 07:18:32;;;;;;;1.75;0.75;;;;;;;-1.10;55.25;98289.25;5081448;28;20032;-63
2022/01/07 07:20:59;;;;;;;1.25;0.82;;;;;;;-1.10;55.49;98291.88;5081100;28;20106;-62
2022/01/07 07:23:25;;;;;;;1.67;0.80;;;;;;;-1.10;55.09;98291.88;5075440;28;20382;-66
2022/01/07 07:25:51;;;;;;;2.22;1.00;;;;;;;-1.17;54.07;98269.56;5077745;28;20024;-66
2022/01/07 07:28:17;;;;;;;0.75;0.63;;;;;;;-0.70;52.25;98308.91;5082540;28;20456;-62
2022/01/07 07:30:43;;;;;;;1.77;0.70;;;;;;;-0.61;50.87;98303.09;5081739;28;20047;-66
2022/01/07 07:38:47;;;;;;;1.05;0.70;;;;;;;0.12;47.93;98318.00;5081518;28;20436;-64
2022/01/07 07:41:13;;;;;;;2.10;0.70;;;;;;;0.19;47.82;98317.59;5079691;28;20024;-64
2022/01/07 07:43:39;;;;;;;0.70;0.60;;;;;;;0.19;47.91;98314.97;5072699;28;20029;-64
2022/01/07 07:46:05;;;;;;;1.90;0.93;;;;;;;0.06;48.56;98313.13;5072295;28;20122;-63
2022/01/07 07:48:32;;;;;;;1.17;0.70;;;;;;;-0.16;48.96;98309.16;5071715;28;20116;-64
2022/01/07 07:50:58;;;;;;;1.23;0.80;;;;;;;-0.12;49.63;98314.25;5090563;28;20043;-63
2022/01/07 07:53:24;;;;;;;1.30;0.80;;;;;;;-0.20;49.57;98322.59;5092790;28;20043;-64
2022/01/07 07:55:53;;;;;;;2.33;0.95;;;;;;;-0.48;49.56;98290.94;5092601;28;20032;-65
2022/01/07 07:58:23;;;;;;;1.52;1.10;;;;;;;-0.21;50.35;98323.53;5092628;28;20119;-63
2022/01/07 08:00:49;;;;;;;2.13;0.68;;;;;;;-0.16;49.86;98327.59;5092114;28;20060;-61
2022/01/07 08:03:15;;;;;;;2.75;1.08;;;;;;;-0.05;50.09;98340.09;5092572;28;20032;-63
2022/01/07 08:05:41;;;;;;;1.10;0.80;;;;;;;0.01;50.15;98333.59;5092243;28;20041;-63
2022/01/07 08:08:07;;;;;;;1.98;1.10;;;;;;;-0.18;49.85;98297.91;5084680;28;20028;-67
2022/01/07 08:10:33;;;;;;;1.80;1.10;;;;;;;0.01;50.33;98338.88;5076544;28;20028;-64
2022/01/07 08:18:23;;;;;;;2.08;1.02;;;;;;;-0.35;51.05;98334.88;5071567;28;20661;-63
2022/01/07 08:20:50;;;;;;;1.40;0.95;;;;;;;-0.57;51.57;98303.78;5071677;28;20081;-62
2022/01/07 08:23:15;;;;;;;2.85;1.00;;;;;;;-0.40;51.50;98336.94;5071594;28;20143;-64
2022/01/07 08:25:41;;;;;;;2.42;1.52;;;;;;;-0.54;51.05;98346.47;5071165;28;20218;-63
2022/01/07 08:28:08;;;;;;;2.83;1.40;;;;;;;-0.64;51.89;98340.09;5071432;28;20036;-66
2022/01/07 08:30:37;;;;;;;2.60;1.30;;;;;;;-0.61;51.53;98340.72;5070046;28;20085;-65
2022/01/07 08:35:50;;;;;;;2.13;1.35;;;;;;;-0.45;51.63;98363.50;5077380;28;20031;-67
2022/01/07 08:38:16;;;;;;;2.75;1.40;;;;;;;-0.40;51.07;98363.25;5091214;28;20112;-63
2022/01/07 08:40:41;;;;;;;2.38;1.40;;;;;;;-0.41;50.86;98357.13;5091168;28;20042;-65
2022/01/07 08:43:08;;;;;;;2.13;1.08;;;;;;;-0.42;50.32;98375.63;5084147;28;20032;-66
2022/01/07 08:45:34;;;;;;;2.78;1.15;;;;;;;-0.47;50.60;98374.13;5080880;28;20024;-65
2022/01/07 08:48:00;;;;;;;2.47;1.10;;;;;;;-0.57;49.43;98372.13;5079356;28;20063;-66
2022/01/07 08:50:26;;;;;;;3.08;1.05;;;;;;;-0.69;49.46;98389.47;5079328;28;20469;-64
2022/01/07 08:52:52;;;;;;;2.13;0.80;;;;;;;-0.73;50.15;98384.34;5061883;28;20037;-66
2022/01/07 08:55:19;;;;;;;1.70;1.00;;;;;;;-1.05;50.02;98392.28;5079330;28;20024;-66
2022/01/07 08:57:45;;;;;;;2.35;1.27;;;;;;;-1.13;50.19;98410.25;5076109;28;20032;-65
2022/01/07 09:00:11;;;;;;;2.25;0.95;;;;;;;-1.23;49.91;98406.44;5076660;28;20036;-66
2022/01/07 09:02:36;;;;;;;1.83;0.95;;;;;;;-1.31;49.94;98407.72;5073234;28;20024;-68
2022/01/07 09:05:02;;;;;;;2.15;0.93;;;;;;;-1.34;49.87;98413.13;5078884;28;20472;-63
2022/01/07 09:07:29;;;;;;;1.65;1.00;;;;;;;-1.49;50.41;98406.09;5077409;28;20024;-66
2022/01/07 09:09:54;;;;;;;2.15;1.20;;;;;;;-1.56;50.81;98425.72;5081332;28;20024;-66
2022/01/07 09:12:20;;;;;;;2.30;1.38;;;;;;;-1.71;51.06;98428.22;5076745;28;20563;-66
2022/01/07 09:14:46;;;;;;;2.30;1.20;;;;;;;-1.85;50.75;98436.00;5079038;28;20028;-66
2022/01/07 09:17:11;;;;;;;2.40;1.00;;;;;;;-1.89;51.00;98425.66;5078065;28;20020;-63
2022/01/07 09:19:37;;;;;;;2.15;1.08;;;;;;;-1.96;51.31;98439.16;5077409;28;20138;-66
2022/01/07 09:22:03;;;;;;;3.47;1.33;;;;;;;-2.26;51.66;98421.47;5069017;28;20481;-65
2022/01/07 09:24:29;;;;;;;2.25;0.90;;;;;;;-2.22;50.39;98447.41;5078880;28;20028;-68
2022/01/07 09:26:56;;;;;;;2.30;1.33;;;;;;;-2.33;50.75;98447.13;5078084;28;20036;-70
2022/01/07 09:29:26;;;;;;;1.88;1.00;;;;;;;-2.49;51.47;98440.00;5077571;28;20032;-72
2022/01/07 09:31:52;;;;;;;2.47;1.20;;;;;;;-2.54;52.26;98452.50;5072362;28;20025;-71
2022/01/07 09:34:18;;;;;;;2.80;1.17;;;;;;;-2.87;52.36;98421.78;5068815;28;20108;-71
2022/01/07 09:36:44;;;;;;;2.53;0.88;;;;;;;-2.82;52.83;98456.47;5068906;28;20032;-67
2022/01/07 09:39:09;;;;;;;2.83;1.10;;;;;;;-2.85;52.93;98468.84;5070153;28;20033;-70
2022/01/07 09:41:35;;;;;;;3.15;1.30;;;;;;;-2.96;53.19;98458.88;5069937;28;20036;-69
2022/01/07 09:44:01;;;;;;;1.75;1.02;;;;;;;-2.92;53.56;98465.66;5069715;28;20045;-71
2022/01/07 09:46:27;;;;;;;3.67;1.20;;;;;;;-2.86;53.59;98469.78;5075216;28;20036;-66
2022/01/07 09:48:53;;;;;;;1.73;1.05;;;;;;;-2.77;53.03;98464.94;5081848;28;20036;-70
2022/01/07 09:51:18;;;;;;;2.55;0.95;;;;;;;-2.99;52.36;98436.31;5070032;28;20043;-71
2022/01/07 09:53:44;;;;;;;2.47;1.00;;;;;;;-2.86;52.88;98468.00;5069520;28;20043;-66
2022/01/07 09:56:11;;;;;;;1.95;1.00;;;;;;;-2.74;52.58;98483.13;5082976;28;20020;-63
2022/01/07 09:58:37;;;;;;;2.00;1.05;;;;;;;-2.74;52.98;98480.50;5069410;28;20474;-71
2022/01/07 10:01:09;;;;;;;2.22;1.08;;;;;;;-2.77;52.82;98467.56;5067140;28;20497;-66
2022/01/07 10:03:40;;;;;;;2.35;1.30;;;;;;;-2.82;53.11;98466.94;5069375;28;20029;-67
2022/01/07 10:06:22;;;;;;;2.85;1.10;;;;;;;-2.85;53.83;98477.56;5069558;28;20082;-65
2022/01/07 10:09:12;;;;;;;2.40;1.05;;;;;;;-2.94;54.12;98472.75;5070844;28;20044;-65
2022/01/07 10:11:38;;;;;;;1.67;1.00;;;;;;;-2.94;54.02;98478.00;5072231;28;20043;-64
2022/01/07 10:14:18;;;;;;;2.45;1.05;;;;;;;-2.92;54.07;98477.00;5070385;28;20474;-65
2022/01/07 10:16:55;;;;;;;2.10;1.17;;;;;;;-2.94;54.01;98475.38;5071702;28;20031;-65
2022/01/07 10:19:42;;;;;;;2.00;1.15;;;;;;;-2.93;53.91;98472.69;5074711;28;20567;-66
2022/01/07 10:22:09;;;;;;;1.77;1.05;;;;;;;-3.02;53.64;98467.88;5077391;28;20036;-64
2022/01/07 10:24:59;;;;;;;1.95;1.20;;;;;;;-3.01;53.91;98466.09;5078209;28;20039;-70
2022/01/07 10:27:38;;;;;;;2.25;1.00;;;;;;;-3.15;54.15;98451.88;5075264;28;20108;-67
2022/01/07 10:30:15;;;;;;;2.95;1.20;;;;;;;-3.08;54.43;98466.41;5079985;28;20119;-67
2022/01/07 10:32:41;;;;;;;1.98;0.90;;;;;;;-3.12;54.21;98461.38;5083269;28;20508;-69
2022/01/07 10:35:19;;;;;;;3.20;0.95;;;;;;;-3.08;54.21;98465.53;5079182;28;20025;-68
2022/01/07 10:38:06;;;;;;;2.00;1.00;;;;;;;-3.10;54.42;98462.16;5070069;28;20036;-63
2022/01/07 10:40:33;;;;;;;3.78;1.05;;;;;;;-3.04;54.33;98456.63;5074360;28;20490;-65
2022/01/07 10:43:12;;;;;;;3.28;1.60;;;;;;;-3.03;54.39;98451.31;5082767;28;20111;-65
2022/01/07 10:45:40;;;;;;;2.03;1.05;;;;;;;-3.05;54.17;98454.91;5082462;28;20025;-66
2022/01/07 10:48:08;;;;;;;2.70;1.00;;;;;;;-3.06;54.33;98458.47;5080384;28;20028;-65
2022/01/07 10:50:48;;;;;;;2.70;1.20;;;;;;;-3.00;54.21;98462.56;5082240;28;20055;-63
2022/01/07 10:53:26;;;;;;;2.83;0.63;;;;;;;-2.96;53.67;98456.25;5093308;28;20036;-62
2022/01/07 10:56:12;;;;;;;2.97;1.10;;;;;;;-3.14;54.23;98416.09;5092529;28;20500;-63
2022/01/07 10:58:43;;;;;;;3.33;1.35;;;;;;;-2.93;53.76;98448.25;5093528;28;20035;-61
2022/01/07 11:01:21;;;;;;;3.92;1.50;;;;;;;-2.96;53.76;98449.28;5093291;28;20032;-63
2022/01/07 11:03:52;;;;;;;3.35;1.35;;;;;;;-2.96;53.75;98451.03;5093567;28;20099;-64
2022/01/07 11:06:19;;;;;;;2.83;1.00;;;;;;;-3.05;54.06;98447.94;5093904;28;20024;-62
2022/01/07 11:08:47;;;;;;;2.08;0.90;;;;;;;-3.23;53.53;98422.59;5088279;28;20043;-62
2022/01/07 11:11:13;;;;;;;1.85;0.90;;;;;;;-3.10;53.96;98444.69;5093290;28;20157;-64
2022/01/07 11:13:41;;;;;;;2.65;0.90;;;;;;;-3.10;53.74;98436.84;5093347;28;20032;-62
2022/01/07 11:16:07;;;;;;;2.38;0.70;;;;;;;-3.10;54.20;98439.44;5093691;28;20035;-64
2022/01/07 11:18:36;;;;;;;3.17;0.90;;;;;;;-3.08;54.09;98450.69;5092184;28;20032;-63
2022/01/07 11:21:03;;;;;;;5.05;2.00;;;;;;;-3.12;54.01;98427.34;5074976;28;20040;-68
2022/01/07 11:23:31;;;;;;;2.60;1.30;;;;;;;-3.24;53.94;98418.28;5093690;28;20032;-63
2022/01/07 11:26:03;;;;;;;3.53;1.08;;;;;;;-3.05;53.68;98447.94;5093459;28;20028;-62
2022/01/07 11:28:30;;;;;;;4.75;1.10;;;;;;;-3.12;53.77;98443.91;5093058;28;20154;-61
2022/01/07 11:31:09;;;;;;;1.25;0.65;;;;;;;-3.07;53.71;98447.16;5092899;28;20031;-62
2022/01/07 11:33:35;;;;;;;2.05;0.80;;;;;;;-3.18;52.69;98423.22;5074967;28;20063;-63
2022/01/07 11:36:01;;;;;;;2.85;1.23;;;;;;;-3.17;53.29;98451.97;5073508;28;20033;-61
2022/01/07 11:38:36;;;;;;;1.77;0.60;;;;;;;-3.21;53.49;98455.66;5068428;28;20036;-63
2022/01/07 11:41:04;;;;;;;2.78;0.80;;;;;;;-3.25;53.81;98453.25;5071082;28;20044;-61
2022/01/07 11:43:37;;;;;;;1.95;0.90;;;;;;;-3.24;53.57;98457.56;5071934;28;20033;-63
2022/01/07 11:46:22;;;;;;;3.78;1.10;;;;;;;-3.24;54.11;98444.47;5073199;28;20036;-66
2022/01/07 11:48:48;;;;;;;;;;;;;;;-3.08;54.56;98448.06;5072568;28;20036;-63
2022/01/07 11:51:16;;;;;;;6.35;1.20;;;;;;;-3.26;54.19;98436.66;5072231;28;20007;-63
2022/01/07 11:53:41;;;;;;;5.82;1.20;;;;;;;-3.32;53.62;98448.28;5072931;28;20039;-63